sensor_id;sensor_type;location;lat;lon;timestamp;P1;durP1;ratioP1;P2;durP2;ratioP2
11827;SDS011;5971;49.646;8.568;2023-08-31T00:01:57;11.82;;;5.97;;
11827;SDS011;5971;49.646;8.568;2023-08-31T00:05:00;10.77;;;6.60;;
11827;SDS011;5971;49.646;8.568;2023-08-31T00:08:02;12.80;;;6.90;;
11827;SDS011;5971;49.646;8.568;2023-08-31T00:11:03;11.98;;;5.85;;
11827;SDS011;5971;49.646;8.568;2023-08-31T00:14:05;12.30;;;6.45;;
11827;SDS011;5971;49.646;8.568;2023-08-31T00:17:06;9.85;;;5.13;;
11827;SDS011;5971;49.646;8.568;2023-08-31T00:20:07;9.55;;;4.70;;
11827;SDS011;5971;49.646;8.568;2023-08-31T00:23:13;10.07;;;5.90;;
11827;SDS011;5971;49.646;8.568;2023-08-31T00:26:14;11.98;;;6.05;;
11827;SDS011;5971;49.646;8.568;2023-08-31T00:29:16;12.13;;;6.38;;
11827;SDS011;5971;49.646;8.568;2023-08-31T00:32:17;10.45;;;5.35;;
11827;SDS011;5971;49.646;8.568;2023-08-31T00:35:23;9.90;;;5.85;;
11827;SDS011;5971;49.646;8.568;2023-08-31T00:38:25;8.82;;;5.20;;
11827;SDS011;5971;49.646;8.568;2023-08-31T00:41:26;8.82;;;5.40;;
11827;SDS011;5971;49.646;8.568;2023-08-31T00:44:28;9.85;;;4.90;;
11827;SDS011;5971;49.646;8.568;2023-08-31T00:47:29;10.43;;;4.82;;
11827;SDS011;5971;49.646;8.568;2023-08-31T00:50:31;7.00;;;5.03;;
11827;SDS011;5971;49.646;8.568;2023-08-31T00:53:32;8.48;;;4.38;;
11827;SDS011;5971;49.646;8.568;2023-08-31T00:56:34;8.15;;;4.65;;
11827;SDS011;5971;49.646;8.568;2023-08-31T00:59:36;10.50;;;5.47;;
11827;SDS011;5971;49.646;8.568;2023-08-31T01:02:40;11.70;;;5.15;;
11827;SDS011;5971;49.646;8.568;2023-08-31T01:05:52;10.27;;;5.35;;
11827;SDS011;5971;49.646;8.568;2023-08-31T01:15:39;9.77;;;4.65;;
11827;SDS011;5971;49.646;8.568;2023-08-31T01:18:42;8.75;;;5.38;;
11827;SDS011;5971;49.646;8.568;2023-08-31T01:21:44;9.23;;;5.72;;
11827;SDS011;5971;49.646;8.568;2023-08-31T01:24:48;9.95;;;5.50;;
11827;SDS011;5971;49.646;8.568;2023-08-31T01:27:50;7.90;;;5.00;;
11827;SDS011;5971;49.646;8.568;2023-08-31T01:30:52;11.85;;;5.82;;
11827;SDS011;5971;49.646;8.568;2023-08-31T01:33:53;9.95;;;4.88;;
11827;SDS011;5971;49.646;8.568;2023-08-31T01:36:56;10.23;;;5.20;;
11827;SDS011;5971;49.646;8.568;2023-08-31T01:40:02;10.43;;;4.85;;
11827;SDS011;5971;49.646;8.568;2023-08-31T01:43:06;10.45;;;5.32;;
11827;SDS011;5971;49.646;8.568;2023-08-31T01:46:07;9.40;;;5.10;;
11827;SDS011;5971;49.646;8.568;2023-08-31T01:49:10;11.13;;;6.57;;
11827;SDS011;5971;49.646;8.568;2023-08-31T01:52:11;12.40;;;6.10;;
11827;SDS011;5971;49.646;8.568;2023-08-31T01:55:12;10.43;;;5.22;;
11827;SDS011;5971;49.646;8.568;2023-08-31T01:58:16;11.32;;;6.25;;
11827;SDS011;5971;49.646;8.568;2023-08-31T02:01:18;9.70;;;4.47;;
11827;SDS011;5971;49.646;8.568;2023-08-31T02:04:19;10.88;;;6.03;;
11827;SDS011;5971;49.646;8.568;2023-08-31T02:07:21;9.50;;;5.80;;
11827;SDS011;5971;49.646;8.568;2023-08-31T02:10:22;9.30;;;5.75;;
11827;SDS011;5971;49.646;8.568;2023-08-31T02:13:23;9.45;;;5.47;;
11827;SDS011;5971;49.646;8.568;2023-08-31T02:16:24;11.65;;;5.68;;
11827;SDS011;5971;49.646;8.568;2023-08-31T02:19:26;11.60;;;6.50;;
11827;SDS011;5971;49.646;8.568;2023-08-31T02:22:27;11.48;;;5.10;;
11827;SDS011;5971;49.646;8.568;2023-08-31T02:25:29;11.00;;;5.05;;
11827;SDS011;5971;49.646;8.568;2023-08-31T02:28:30;9.18;;;4.45;;
11827;SDS011;5971;49.646;8.568;2023-08-31T02:31:32;9.43;;;5.90;;
11827;SDS011;5971;49.646;8.568;2023-08-31T02:34:33;9.23;;;5.65;;
11827;SDS011;5971;49.646;8.568;2023-08-31T02:37:34;9.15;;;4.80;;
11827;SDS011;5971;49.646;8.568;2023-08-31T02:40:36;8.88;;;4.05;;
11827;SDS011;5971;49.646;8.568;2023-08-31T02:43:38;8.48;;;4.90;;
11827;SDS011;5971;49.646;8.568;2023-08-31T02:46:40;10.82;;;4.53;;
11827;SDS011;5971;49.646;8.568;2023-08-31T02:49:41;8.80;;;5.15;;
11827;SDS011;5971;49.646;8.568;2023-08-31T02:52:43;10.50;;;4.75;;
11827;SDS011;5971;49.646;8.568;2023-08-31T02:55:44;10.65;;;4.72;;
11827;SDS011;5971;49.646;8.568;2023-08-31T02:58:45;9.60;;;5.32;;
11827;SDS011;5971;49.646;8.568;2023-08-31T03:01:48;8.93;;;5.30;;
11827;SDS011;5971;49.646;8.568;2023-08-31T03:04:49;9.10;;;4.93;;
11827;SDS011;5971;49.646;8.568;2023-08-31T03:07:51;10.68;;;4.85;;
11827;SDS011;5971;49.646;8.568;2023-08-31T03:10:53;10.43;;;5.18;;
11827;SDS011;5971;49.646;8.568;2023-08-31T03:13:54;7.95;;;4.68;;
11827;SDS011;5971;49.646;8.568;2023-08-31T03:16:55;9.55;;;5.30;;
11827;SDS011;5971;49.646;8.568;2023-08-31T03:19:57;11.98;;;6.22;;
11827;SDS011;5971;49.646;8.568;2023-08-31T03:22:58;12.20;;;5.90;;
11827;SDS011;5971;49.646;8.568;2023-08-31T03:25:59;11.50;;;6.45;;
11827;SDS011;5971;49.646;8.568;2023-08-31T03:29:01;10.52;;;5.32;;
11827;SDS011;5971;49.646;8.568;2023-08-31T03:32:02;14.75;;;5.30;;
11827;SDS011;5971;49.646;8.568;2023-08-31T03:35:04;9.98;;;4.93;;
11827;SDS011;5971;49.646;8.568;2023-08-31T03:38:06;10.68;;;6.13;;
11827;SDS011;5971;49.646;8.568;2023-08-31T03:41:07;9.35;;;4.72;;
11827;SDS011;5971;49.646;8.568;2023-08-31T03:44:08;12.90;;;5.63;;
11827;SDS011;5971;49.646;8.568;2023-08-31T03:47:10;10.30;;;5.10;;
11827;SDS011;5971;49.646;8.568;2023-08-31T03:50:11;10.65;;;4.95;;
11827;SDS011;5971;49.646;8.568;2023-08-31T03:53:13;10.77;;;4.80;;
11827;SDS011;5971;49.646;8.568;2023-08-31T03:56:14;10.25;;;5.38;;
11827;SDS011;5971;49.646;8.568;2023-08-31T03:59:16;10.20;;;5.03;;
11827;SDS011;5971;49.646;8.568;2023-08-31T04:02:17;9.65;;;5.07;;
11827;SDS011;5971;49.646;8.568;2023-08-31T04:05:18;10.40;;;5.57;;
11827;SDS011;5971;49.646;8.568;2023-08-31T04:08:20;11.82;;;5.68;;
11827;SDS011;5971;49.646;8.568;2023-08-31T04:11:22;9.82;;;5.10;;
11827;SDS011;5971;49.646;8.568;2023-08-31T04:14:25;13.35;;;5.60;;
11827;SDS011;5971;49.646;8.568;2023-08-31T04:17:26;10.70;;;6.22;;
11827;SDS011;5971;49.646;8.568;2023-08-31T04:20:28;12.30;;;6.10;;
11827;SDS011;5971;49.646;8.568;2023-08-31T04:23:29;13.60;;;5.55;;
11827;SDS011;5971;49.646;8.568;2023-08-31T04:26:31;13.00;;;5.97;;
11827;SDS011;5971;49.646;8.568;2023-08-31T04:29:32;9.48;;;5.55;;
11827;SDS011;5971;49.646;8.568;2023-08-31T04:32:34;12.02;;;5.57;;
11827;SDS011;5971;49.646;8.568;2023-08-31T04:35:36;12.23;;;6.28;;
11827;SDS011;5971;49.646;8.568;2023-08-31T04:38:38;12.20;;;6.38;;
11827;SDS011;5971;49.646;8.568;2023-08-31T04:41:39;10.30;;;5.93;;
11827;SDS011;5971;49.646;8.568;2023-08-31T04:44:40;13.68;;;6.88;;
11827;SDS011;5971;49.646;8.568;2023-08-31T04:47:42;14.82;;;7.03;;
11827;SDS011;5971;49.646;8.568;2023-08-31T04:50:43;15.75;;;6.65;;
11827;SDS011;5971;49.646;8.568;2023-08-31T04:53:44;13.65;;;6.22;;
11827;SDS011;5971;49.646;8.568;2023-08-31T04:56:46;14.57;;;6.57;;
11827;SDS011;5971;49.646;8.568;2023-08-31T04:59:47;13.63;;;6.57;;
11827;SDS011;5971;49.646;8.568;2023-08-31T05:02:48;19.27;;;7.88;;
11827;SDS011;5971;49.646;8.568;2023-08-31T05:05:50;15.07;;;7.35;;
11827;SDS011;5971;49.646;8.568;2023-08-31T05:08:51;19.25;;;7.13;;
11827;SDS011;5971;49.646;8.568;2023-08-31T05:11:52;16.08;;;7.85;;
11827;SDS011;5971;49.646;8.568;2023-08-31T05:14:54;18.73;;;7.85;;
11827;SDS011;5971;49.646;8.568;2023-08-31T05:17:55;16.52;;;7.82;;
11827;SDS011;5971;49.646;8.568;2023-08-31T05:20:57;16.63;;;7.47;;
11827;SDS011;5971;49.646;8.568;2023-08-31T05:23:58;13.50;;;6.88;;
11827;SDS011;5971;49.646;8.568;2023-08-31T05:27:00;12.85;;;6.18;;
11827;SDS011;5971;49.646;8.568;2023-08-31T05:30:01;14.25;;;6.50;;
11827;SDS011;5971;49.646;8.568;2023-08-31T05:33:03;14.55;;;6.80;;
11827;SDS011;5971;49.646;8.568;2023-08-31T05:36:04;15.05;;;8.00;;
11827;SDS011;5971;49.646;8.568;2023-08-31T05:39:06;17.33;;;8.15;;
11827;SDS011;5971;49.646;8.568;2023-08-31T05:42:07;12.98;;;7.63;;
11827;SDS011;5971;49.646;8.568;2023-08-31T05:45:09;12.43;;;5.95;;
11827;SDS011;5971;49.646;8.568;2023-08-31T05:48:10;12.25;;;5.65;;
11827;SDS011;5971;49.646;8.568;2023-08-31T05:51:12;14.38;;;6.97;;
11827;SDS011;5971;49.646;8.568;2023-08-31T05:54:13;10.45;;;5.05;;
11827;SDS011;5971;49.646;8.568;2023-08-31T05:57:18;11.20;;;5.82;;
11827;SDS011;5971;49.646;8.568;2023-08-31T06:00:19;12.68;;;6.20;;
11827;SDS011;5971;49.646;8.568;2023-08-31T06:03:21;14.77;;;6.45;;
11827;SDS011;5971;49.646;8.568;2023-08-31T06:06:22;12.43;;;6.78;;
11827;SDS011;5971;49.646;8.568;2023-08-31T06:09:23;13.30;;;6.47;;
11827;SDS011;5971;49.646;8.568;2023-08-31T06:12:25;11.63;;;5.85;;
11827;SDS011;5971;49.646;8.568;2023-08-31T06:15:26;13.05;;;6.60;;
11827;SDS011;5971;49.646;8.568;2023-08-31T06:18:27;13.35;;;6.93;;
11827;SDS011;5971;49.646;8.568;2023-08-31T06:21:29;11.15;;;5.95;;
11827;SDS011;5971;49.646;8.568;2023-08-31T06:24:30;11.95;;;6.00;;
11827;SDS011;5971;49.646;8.568;2023-08-31T06:27:33;12.35;;;6.22;;
11827;SDS011;5971;49.646;8.568;2023-08-31T06:30:35;10.55;;;5.88;;
11827;SDS011;5971;49.646;8.568;2023-08-31T06:33:36;8.30;;;5.88;;
11827;SDS011;5971;49.646;8.568;2023-08-31T06:36:37;6.93;;;5.10;;
11827;SDS011;5971;49.646;8.568;2023-08-31T06:39:39;10.02;;;4.93;;
11827;SDS011;5971;49.646;8.568;2023-08-31T06:42:42;10.55;;;4.85;;
11827;SDS011;5971;49.646;8.568;2023-08-31T06:45:43;7.93;;;5.20;;
11827;SDS011;5971;49.646;8.568;2023-08-31T06:48:44;7.88;;;4.43;;
11827;SDS011;5971;49.646;8.568;2023-08-31T06:51:46;8.27;;;3.83;;
11827;SDS011;5971;49.646;8.568;2023-08-31T06:54:47;9.55;;;4.53;;
11827;SDS011;5971;49.646;8.568;2023-08-31T06:57:49;6.22;;;4.38;;
11827;SDS011;5971;49.646;8.568;2023-08-31T07:00:50;7.47;;;4.75;;
11827;SDS011;5971;49.646;8.568;2023-08-31T07:03:51;6.57;;;4.38;;
11827;SDS011;5971;49.646;8.568;2023-08-31T07:06:53;6.53;;;4.60;;
11827;SDS011;5971;49.646;8.568;2023-08-31T07:09:54;7.70;;;3.83;;
11827;SDS011;5971;49.646;8.568;2023-08-31T07:12:56;8.95;;;4.90;;
11827;SDS011;5971;49.646;8.568;2023-08-31T07:15:57;7.10;;;3.95;;
11827;SDS011;5971;49.646;8.568;2023-08-31T07:18:58;6.63;;;4.28;;
11827;SDS011;5971;49.646;8.568;2023-08-31T07:22:00;7.38;;;4.47;;
11827;SDS011;5971;49.646;8.568;2023-08-31T07:25:01;6.15;;;3.97;;
11827;SDS011;5971;49.646;8.568;2023-08-31T07:28:04;5.38;;;3.67;;
11827;SDS011;5971;49.646;8.568;2023-08-31T07:31:06;5.80;;;3.70;;
11827;SDS011;5971;49.646;8.568;2023-08-31T07:34:08;7.82;;;3.80;;
11827;SDS011;5971;49.646;8.568;2023-08-31T07:37:09;7.00;;;3.58;;
11827;SDS011;5971;49.646;8.568;2023-08-31T07:40:11;7.00;;;3.60;;
11827;SDS011;5971;49.646;8.568;2023-08-31T07:43:12;6.07;;;4.03;;
11827;SDS011;5971;49.646;8.568;2023-08-31T07:46:15;5.68;;;3.45;;
11827;SDS011;5971;49.646;8.568;2023-08-31T07:49:17;6.00;;;3.53;;
11827;SDS011;5971;49.646;8.568;2023-08-31T07:52:18;4.68;;;3.22;;
11827;SDS011;5971;49.646;8.568;2023-08-31T07:55:20;6.65;;;3.15;;
11827;SDS011;5971;49.646;8.568;2023-08-31T07:58:22;5.78;;;2.85;;
11827;SDS011;5971;49.646;8.568;2023-08-31T08:01:23;4.32;;;2.63;;
11827;SDS011;5971;49.646;8.568;2023-08-31T08:04:25;5.97;;;4.43;;
11827;SDS011;5971;49.646;8.568;2023-08-31T08:07:27;7.28;;;3.15;;
11827;SDS011;5971;49.646;8.568;2023-08-31T08:10:29;7.72;;;3.67;;
11827;SDS011;5971;49.646;8.568;2023-08-31T08:13:30;5.38;;;3.30;;
11827;SDS011;5971;49.646;8.568;2023-08-31T08:16:32;6.18;;;4.00;;
11827;SDS011;5971;49.646;8.568;2023-08-31T08:19:33;9.80;;;3.05;;
11827;SDS011;5971;49.646;8.568;2023-08-31T08:22:35;5.57;;;3.00;;
11827;SDS011;5971;49.646;8.568;2023-08-31T08:25:37;4.82;;;2.20;;
11827;SDS011;5971;49.646;8.568;2023-08-31T08:28:38;3.80;;;2.42;;
11827;SDS011;5971;49.646;8.568;2023-08-31T08:31:40;5.88;;;1.70;;
11827;SDS011;5971;49.646;8.568;2023-08-31T08:34:41;4.10;;;2.03;;
11827;SDS011;5971;49.646;8.568;2023-08-31T08:37:43;3.45;;;2.45;;
11827;SDS011;5971;49.646;8.568;2023-08-31T08:40:44;3.90;;;1.98;;
11827;SDS011;5971;49.646;8.568;2023-08-31T08:43:45;3.33;;;1.55;;
11827;SDS011;5971;49.646;8.568;2023-08-31T08:46:48;3.67;;;1.80;;
11827;SDS011;5971;49.646;8.568;2023-08-31T08:49:49;4.03;;;2.08;;
11827;SDS011;5971;49.646;8.568;2023-08-31T08:52:51;3.85;;;2.08;;
11827;SDS011;5971;49.646;8.568;2023-08-31T08:55:52;4.35;;;1.80;;
11827;SDS011;5971;49.646;8.568;2023-08-31T08:58:54;4.63;;;2.10;;
11827;SDS011;5971;49.646;8.568;2023-08-31T09:01:55;3.42;;;1.80;;
11827;SDS011;5971;49.646;8.568;2023-08-31T09:04:57;3.85;;;2.03;;
11827;SDS011;5971;49.646;8.568;2023-08-31T09:08:02;3.35;;;1.75;;
11827;SDS011;5971;49.646;8.568;2023-08-31T09:11:04;3.80;;;2.10;;
11827;SDS011;5971;49.646;8.568;2023-08-31T09:14:18;3.63;;;1.60;;
11827;SDS011;5971;49.646;8.568;2023-08-31T09:17:21;6.05;;;2.00;;
11827;SDS011;5971;49.646;8.568;2023-08-31T09:20:23;4.25;;;1.80;;
11827;SDS011;5971;49.646;8.568;2023-08-31T09:23:25;3.83;;;1.80;;
11827;SDS011;5971;49.646;8.568;2023-08-31T09:26:26;3.47;;;1.95;;
11827;SDS011;5971;49.646;8.568;2023-08-31T09:29:28;2.40;;;1.45;;
11827;SDS011;5971;49.646;8.568;2023-08-31T09:32:29;3.03;;;1.40;;
11827;SDS011;5971;49.646;8.568;2023-08-31T09:35:31;3.03;;;1.90;;
11827;SDS011;5971;49.646;8.568;2023-08-31T09:38:40;3.33;;;1.83;;
11827;SDS011;5971;49.646;8.568;2023-08-31T09:41:54;3.38;;;1.88;;
11827;SDS011;5971;49.646;8.568;2023-08-31T09:44:56;2.92;;;1.70;;
11827;SDS011;5971;49.646;8.568;2023-08-31T09:48:01;3.17;;;1.52;;
11827;SDS011;5971;49.646;8.568;2023-08-31T09:51:07;3.53;;;1.80;;
11827;SDS011;5971;49.646;8.568;2023-08-31T09:54:13;3.20;;;1.40;;
11827;SDS011;5971;49.646;8.568;2023-08-31T09:57:14;3.42;;;1.58;;
11827;SDS011;5971;49.646;8.568;2023-08-31T10:00:16;3.30;;;1.80;;
11827;SDS011;5971;49.646;8.568;2023-08-31T10:03:18;3.60;;;1.98;;
11827;SDS011;5971;49.646;8.568;2023-08-31T10:06:21;3.15;;;1.52;;
11827;SDS011;5971;49.646;8.568;2023-08-31T10:09:23;3.17;;;1.20;;
11827;SDS011;5971;49.646;8.568;2023-08-31T10:12:24;4.15;;;1.85;;
11827;SDS011;5971;49.646;8.568;2023-08-31T10:15:35;2.58;;;1.23;;
11827;SDS011;5971;49.646;8.568;2023-08-31T10:18:37;2.83;;;1.75;;
11827;SDS011;5971;49.646;8.568;2023-08-31T10:21:40;3.53;;;1.70;;
11827;SDS011;5971;49.646;8.568;2023-08-31T10:28:06;3.20;;;1.60;;
11827;SDS011;5971;49.646;8.568;2023-08-31T10:31:17;4.43;;;1.90;;
11827;SDS011;5971;49.646;8.568;2023-08-31T10:34:19;2.58;;;1.73;;
11827;SDS011;5971;49.646;8.568;2023-08-31T10:37:34;2.97;;;1.92;;
11827;SDS011;5971;49.646;8.568;2023-08-31T10:40:36;4.13;;;1.35;;
11827;SDS011;5971;49.646;8.568;2023-08-31T10:43:44;3.20;;;2.10;;
11827;SDS011;5971;49.646;8.568;2023-08-31T10:46:50;3.15;;;1.80;;
11827;SDS011;5971;49.646;8.568;2023-08-31T10:49:52;2.80;;;1.55;;
11827;SDS011;5971;49.646;8.568;2023-08-31T10:52:54;3.10;;;2.00;;
11827;SDS011;5971;49.646;8.568;2023-08-31T10:55:56;3.08;;;1.95;;
11827;SDS011;5971;49.646;8.568;2023-08-31T10:58:57;3.53;;;1.70;;
11827;SDS011;5971;49.646;8.568;2023-08-31T11:02:00;3.40;;;1.90;;
11827;SDS011;5971;49.646;8.568;2023-08-31T11:05:14;4.00;;;1.83;;
11827;SDS011;5971;49.646;8.568;2023-08-31T11:08:16;4.00;;;1.67;;
11827;SDS011;5971;49.646;8.568;2023-08-31T11:11:21;4.03;;;1.80;;
11827;SDS011;5971;49.646;8.568;2023-08-31T11:14:23;3.25;;;1.90;;
11827;SDS011;5971;49.646;8.568;2023-08-31T11:17:25;3.17;;;1.77;;
11827;SDS011;5971;49.646;8.568;2023-08-31T11:20:30;4.38;;;2.00;;
11827;SDS011;5971;49.646;8.568;2023-08-31T11:23:35;3.25;;;1.60;;
11827;SDS011;5971;49.646;8.568;2023-08-31T11:26:37;3.55;;;2.05;;
11827;SDS011;5971;49.646;8.568;2023-08-31T11:29:44;4.03;;;1.60;;
11827;SDS011;5971;49.646;8.568;2023-08-31T11:32:47;4.07;;;1.95;;
11827;SDS011;5971;49.646;8.568;2023-08-31T11:35:48;3.35;;;1.50;;
11827;SDS011;5971;49.646;8.568;2023-08-31T11:38:50;3.85;;;1.77;;
11827;SDS011;5971;49.646;8.568;2023-08-31T11:41:52;4.10;;;1.80;;
11827;SDS011;5971;49.646;8.568;2023-08-31T11:44:53;2.38;;;1.50;;
11827;SDS011;5971;49.646;8.568;2023-08-31T11:47:54;3.00;;;1.20;;
11827;SDS011;5971;49.646;8.568;2023-08-31T11:50:56;4.40;;;1.55;;
11827;SDS011;5971;49.646;8.568;2023-08-31T11:53:58;3.45;;;1.63;;
11827;SDS011;5971;49.646;8.568;2023-08-31T11:57:00;3.78;;;1.60;;
11827;SDS011;5971;49.646;8.568;2023-08-31T12:00:02;3.00;;;1.30;;
11827;SDS011;5971;49.646;8.568;2023-08-31T12:03:05;3.47;;;1.90;;
11827;SDS011;5971;49.646;8.568;2023-08-31T12:06:10;3.05;;;1.70;;
11827;SDS011;5971;49.646;8.568;2023-08-31T12:09:11;4.20;;;1.75;;
11827;SDS011;5971;49.646;8.568;2023-08-31T12:12:13;3.28;;;1.65;;
11827;SDS011;5971;49.646;8.568;2023-08-31T12:15:15;3.00;;;1.90;;
11827;SDS011;5971;49.646;8.568;2023-08-31T12:18:16;4.40;;;2.10;;
11827;SDS011;5971;49.646;8.568;2023-08-31T12:21:19;4.38;;;1.98;;
11827;SDS011;5971;49.646;8.568;2023-08-31T12:24:20;3.97;;;1.90;;
11827;SDS011;5971;49.646;8.568;2023-08-31T12:27:23;4.88;;;2.10;;
11827;SDS011;5971;49.646;8.568;2023-08-31T12:30:24;4.43;;;2.25;;
11827;SDS011;5971;49.646;8.568;2023-08-31T12:33:27;4.07;;;1.83;;
11827;SDS011;5971;49.646;8.568;2023-08-31T12:36:28;4.80;;;1.88;;
11827;SDS011;5971;49.646;8.568;2023-08-31T12:39:29;4.07;;;2.10;;
11827;SDS011;5971;49.646;8.568;2023-08-31T12:42:31;3.78;;;2.10;;
11827;SDS011;5971;49.646;8.568;2023-08-31T12:45:32;4.28;;;2.00;;
11827;SDS011;5971;49.646;8.568;2023-08-31T12:48:34;4.13;;;1.95;;
11827;SDS011;5971;49.646;8.568;2023-08-31T12:51:35;4.82;;;2.10;;
11827;SDS011;5971;49.646;8.568;2023-08-31T12:54:37;4.38;;;2.25;;
11827;SDS011;5971;49.646;8.568;2023-08-31T12:57:38;3.38;;;1.80;;
11827;SDS011;5971;49.646;8.568;2023-08-31T13:00:40;4.00;;;2.20;;
11827;SDS011;5971;49.646;8.568;2023-08-31T13:03:42;4.93;;;2.13;;
11827;SDS011;5971;49.646;8.568;2023-08-31T13:06:43;5.47;;;2.00;;
11827;SDS011;5971;49.646;8.568;2023-08-31T13:09:47;4.40;;;2.25;;
11827;SDS011;5971;49.646;8.568;2023-08-31T13:12:49;6.25;;;2.15;;
11827;SDS011;5971;49.646;8.568;2023-08-31T13:15:50;4.20;;;2.15;;
11827;SDS011;5971;49.646;8.568;2023-08-31T13:19:04;4.10;;;2.17;;
11827;SDS011;5971;49.646;8.568;2023-08-31T13:22:08;4.28;;;2.15;;
11827;SDS011;5971;49.646;8.568;2023-08-31T13:25:09;3.85;;;1.98;;
11827;SDS011;5971;49.646;8.568;2023-08-31T13:28:12;3.78;;;1.80;;
11827;SDS011;5971;49.646;8.568;2023-08-31T13:31:14;3.63;;;1.90;;
11827;SDS011;5971;49.646;8.568;2023-08-31T13:34:16;4.32;;;2.30;;
11827;SDS011;5971;49.646;8.568;2023-08-31T13:37:17;4.63;;;1.75;;
11827;SDS011;5971;49.646;8.568;2023-08-31T13:40:18;4.60;;;2.15;;
11827;SDS011;5971;49.646;8.568;2023-08-31T13:43:20;4.53;;;1.92;;
11827;SDS011;5971;49.646;8.568;2023-08-31T13:46:21;4.85;;;2.10;;
11827;SDS011;5971;49.646;8.568;2023-08-31T13:49:23;4.55;;;2.00;;
11827;SDS011;5971;49.646;8.568;2023-08-31T13:52:24;7.85;;;3.40;;
11827;SDS011;5971;49.646;8.568;2023-08-31T13:55:26;4.28;;;1.90;;
11827;SDS011;5971;49.646;8.568;2023-08-31T13:58:31;5.28;;;2.20;;
11827;SDS011;5971;49.646;8.568;2023-08-31T14:01:32;4.22;;;2.05;;
11827;SDS011;5971;49.646;8.568;2023-08-31T14:04:34;4.57;;;1.80;;
11827;SDS011;5971;49.646;8.568;2023-08-31T14:07:35;3.47;;;2.20;;
11827;SDS011;5971;49.646;8.568;2023-08-31T14:10:39;5.63;;;2.38;;
11827;SDS011;5971;49.646;8.568;2023-08-31T14:13:42;3.97;;;1.83;;
11827;SDS011;5971;49.646;8.568;2023-08-31T14:19:45;4.25;;;2.10;;
11827;SDS011;5971;49.646;8.568;2023-08-31T14:22:49;4.38;;;2.10;;
11827;SDS011;5971;49.646;8.568;2023-08-31T14:25:51;3.83;;;2.03;;
11827;SDS011;5971;49.646;8.568;2023-08-31T14:28:53;4.15;;;2.10;;
11827;SDS011;5971;49.646;8.568;2023-08-31T14:31:56;4.55;;;2.53;;
11827;SDS011;5971;49.646;8.568;2023-08-31T14:34:58;4.18;;;2.10;;
11827;SDS011;5971;49.646;8.568;2023-08-31T14:37:59;4.80;;;2.33;;
11827;SDS011;5971;49.646;8.568;2023-08-31T14:41:00;4.75;;;2.35;;
11827;SDS011;5971;49.646;8.568;2023-08-31T14:44:02;3.72;;;2.30;;
11827;SDS011;5971;49.646;8.568;2023-08-31T14:47:03;5.32;;;2.55;;
11827;SDS011;5971;49.646;8.568;2023-08-31T14:50:05;4.10;;;1.70;;
11827;SDS011;5971;49.646;8.568;2023-08-31T14:53:06;4.03;;;1.98;;
11827;SDS011;5971;49.646;8.568;2023-08-31T14:56:08;4.63;;;2.20;;
11827;SDS011;5971;49.646;8.568;2023-08-31T14:59:09;3.25;;;2.05;;
11827;SDS011;5971;49.646;8.568;2023-08-31T15:02:10;5.18;;;1.83;;
11827;SDS011;5971;49.646;8.568;2023-08-31T15:05:12;4.43;;;2.30;;
11827;SDS011;5971;49.646;8.568;2023-08-31T15:08:16;4.70;;;2.38;;
11827;SDS011;5971;49.646;8.568;2023-08-31T15:11:17;5.57;;;2.50;;
11827;SDS011;5971;49.646;8.568;2023-08-31T15:14:19;5.05;;;2.17;;
11827;SDS011;5971;49.646;8.568;2023-08-31T15:17:20;5.00;;;2.60;;
11827;SDS011;5971;49.646;8.568;2023-08-31T15:20:22;3.72;;;2.10;;
11827;SDS011;5971;49.646;8.568;2023-08-31T15:23:24;5.25;;;2.25;;
11827;SDS011;5971;49.646;8.568;2023-08-31T15:26:26;4.28;;;2.20;;
11827;SDS011;5971;49.646;8.568;2023-08-31T15:29:27;3.97;;;2.17;;
11827;SDS011;5971;49.646;8.568;2023-08-31T15:32:29;4.03;;;2.15;;
11827;SDS011;5971;49.646;8.568;2023-08-31T15:35:31;3.92;;;2.10;;
11827;SDS011;5971;49.646;8.568;2023-08-31T15:38:33;4.50;;;1.85;;
11827;SDS011;5971;49.646;8.568;2023-08-31T15:41:34;4.40;;;2.20;;
11827;SDS011;5971;49.646;8.568;2023-08-31T15:44:39;4.60;;;1.55;;
11827;SDS011;5971;49.646;8.568;2023-08-31T15:47:41;4.32;;;2.38;;
11827;SDS011;5971;49.646;8.568;2023-08-31T15:50:42;4.53;;;2.33;;
11827;SDS011;5971;49.646;8.568;2023-08-31T15:53:44;5.38;;;2.30;;
11827;SDS011;5971;49.646;8.568;2023-08-31T15:56:45;5.82;;;2.38;;
11827;SDS011;5971;49.646;8.568;2023-08-31T15:59:46;3.60;;;1.60;;
11827;SDS011;5971;49.646;8.568;2023-08-31T16:02:48;4.78;;;2.83;;
11827;SDS011;5971;49.646;8.568;2023-08-31T16:05:49;4.15;;;2.33;;
11827;SDS011;5971;49.646;8.568;2023-08-31T16:08:51;4.82;;;2.60;;
11827;SDS011;5971;49.646;8.568;2023-08-31T16:11:52;5.28;;;2.72;;
11827;SDS011;5971;49.646;8.568;2023-08-31T16:14:53;5.20;;;2.40;;
11827;SDS011;5971;49.646;8.568;2023-08-31T16:17:55;5.18;;;2.22;;
11827;SDS011;5971;49.646;8.568;2023-08-31T16:20:58;4.13;;;2.33;;
11827;SDS011;5971;49.646;8.568;2023-08-31T16:23:59;4.93;;;2.38;;
11827;SDS011;5971;49.646;8.568;2023-08-31T16:27:01;5.97;;;2.08;;
11827;SDS011;5971;49.646;8.568;2023-08-31T16:30:04;5.40;;;2.72;;
11827;SDS011;5971;49.646;8.568;2023-08-31T16:33:05;5.20;;;2.47;;
11827;SDS011;5971;49.646;8.568;2023-08-31T16:36:07;4.75;;;2.58;;
11827;SDS011;5971;49.646;8.568;2023-08-31T16:39:08;5.18;;;2.75;;
11827;SDS011;5971;49.646;8.568;2023-08-31T16:42:09;7.15;;;2.50;;
11827;SDS011;5971;49.646;8.568;2023-08-31T16:45:12;5.97;;;2.50;;
11827;SDS011;5971;49.646;8.568;2023-08-31T16:48:14;5.55;;;2.20;;
11827;SDS011;5971;49.646;8.568;2023-08-31T16:51:15;5.13;;;2.53;;
11827;SDS011;5971;49.646;8.568;2023-08-31T16:54:18;5.00;;;2.17;;
11827;SDS011;5971;49.646;8.568;2023-08-31T16:57:19;4.03;;;2.42;;
11827;SDS011;5971;49.646;8.568;2023-08-31T17:00:21;4.60;;;2.60;;
11827;SDS011;5971;49.646;8.568;2023-08-31T17:03:23;4.32;;;2.67;;
11827;SDS011;5971;49.646;8.568;2023-08-31T17:06:24;7.90;;;3.05;;
11827;SDS011;5971;49.646;8.568;2023-08-31T17:09:26;4.20;;;2.38;;
11827;SDS011;5971;49.646;8.568;2023-08-31T17:12:28;5.40;;;2.67;;
11827;SDS011;5971;49.646;8.568;2023-08-31T17:15:29;5.68;;;2.70;;
11827;SDS011;5971;49.646;8.568;2023-08-31T17:18:32;5.63;;;2.78;;
11827;SDS011;5971;49.646;8.568;2023-08-31T17:21:34;4.97;;;2.72;;
11827;SDS011;5971;49.646;8.568;2023-08-31T17:24:35;3.92;;;2.50;;
11827;SDS011;5971;49.646;8.568;2023-08-31T17:27:37;6.30;;;2.70;;
11827;SDS011;5971;49.646;8.568;2023-08-31T17:30:38;5.28;;;2.53;;
11827;SDS011;5971;49.646;8.568;2023-08-31T17:33:41;7.22;;;2.90;;
11827;SDS011;5971;49.646;8.568;2023-08-31T17:36:43;4.68;;;2.83;;
11827;SDS011;5971;49.646;8.568;2023-08-31T17:39:45;6.65;;;2.17;;
11827;SDS011;5971;49.646;8.568;2023-08-31T17:42:47;5.97;;;2.80;;
11827;SDS011;5971;49.646;8.568;2023-08-31T17:45:48;4.80;;;1.90;;
11827;SDS011;5971;49.646;8.568;2023-08-31T17:48:50;5.18;;;2.80;;
11827;SDS011;5971;49.646;8.568;2023-08-31T17:51:51;4.68;;;2.40;;
11827;SDS011;5971;49.646;8.568;2023-08-31T17:54:53;5.10;;;1.75;;
11827;SDS011;5971;49.646;8.568;2023-08-31T17:57:54;5.45;;;2.60;;
11827;SDS011;5971;49.646;8.568;2023-08-31T18:00:56;4.22;;;2.38;;
11827;SDS011;5971;49.646;8.568;2023-08-31T18:03:58;6.82;;;2.33;;
11827;SDS011;5971;49.646;8.568;2023-08-31T18:07:00;6.72;;;2.65;;
11827;SDS011;5971;49.646;8.568;2023-08-31T18:10:02;5.80;;;2.55;;
11827;SDS011;5971;49.646;8.568;2023-08-31T18:13:04;4.65;;;2.10;;
11827;SDS011;5971;49.646;8.568;2023-08-31T18:16:05;5.78;;;2.90;;
11827;SDS011;5971;49.646;8.568;2023-08-31T18:19:07;4.70;;;2.10;;
11827;SDS011;5971;49.646;8.568;2023-08-31T18:22:08;5.75;;;2.00;;
11827;SDS011;5971;49.646;8.568;2023-08-31T18:25:10;3.97;;;2.53;;
11827;SDS011;5971;49.646;8.568;2023-08-31T18:28:11;6.13;;;2.33;;
11827;SDS011;5971;49.646;8.568;2023-08-31T18:31:13;4.30;;;1.90;;
11827;SDS011;5971;49.646;8.568;2023-08-31T18:34:14;4.93;;;2.08;;
11827;SDS011;5971;49.646;8.568;2023-08-31T18:37:16;3.47;;;1.90;;
11827;SDS011;5971;49.646;8.568;2023-08-31T18:40:17;6.20;;;3.10;;
11827;SDS011;5971;49.646;8.568;2023-08-31T18:43:19;5.65;;;2.17;;